createdAt,value
2022-09-11T00:01:57.964Z,18.30
2022-09-11T00:04:27.558Z,18.30
2022-09-11T00:06:56.533Z,18.30
2022-09-11T00:09:25.654Z,18.30
2022-09-11T00:11:54.768Z,18.30
2022-09-11T00:14:23.934Z,18.30
2022-09-11T00:16:54.342Z,18.40
2022-09-11T00:19:23.374Z,18.40
2022-09-11T00:21:55.679Z,18.40
2022-09-11T00:24:24.994Z,18.40
2022-09-11T00:26:54.243Z,18.40
2022-09-11T00:29:23.348Z,18.40
2022-09-11T00:31:57.654Z,18.30
2022-09-11T00:34:26.792Z,18.30
2022-09-11T00:36:55.871Z,18.30
2022-09-11T00:39:24.853Z,18.20
2022-09-11T00:41:54.073Z,18.20
2022-09-11T00:45:03.284Z,18.10
2022-09-11T00:47:35.063Z,18.10
2022-09-11T00:50:15.082Z,18.10
2022-09-11T00:52:53.695Z,18.10
2022-09-11T00:55:27.625Z,18.00
2022-09-11T00:58:01.503Z,17.90
2022-09-11T01:00:31.028Z,18.00
2022-09-11T01:03:01.602Z,18.00
2022-09-11T01:05:34.688Z,18.30
2022-09-11T01:08:04.222Z,18.00
2022-09-11T01:10:46.543Z,18.00
2022-09-11T01:13:26.789Z,18.00
2022-09-11T01:16:10.829Z,18.00
2022-09-11T01:18:49.311Z,18.00
2022-09-11T01:21:53.307Z,17.90
2022-09-11T01:24:45.374Z,18.00
2022-09-11T01:27:43.374Z,18.00
2022-09-11T01:30:16.254Z,17.80
2022-09-11T01:33:13.942Z,17.90
2022-09-11T01:36:04.051Z,17.90
2022-09-11T01:38:37.900Z,17.80
2022-09-11T01:41:11.420Z,17.60
2022-09-11T01:43:46.985Z,17.70
2022-09-11T01:46:23.123Z,17.70
2022-09-11T01:49:02.546Z,17.70
2022-09-11T01:51:36.262Z,17.70
2022-09-11T01:54:12.470Z,17.80
2022-09-11T01:56:49.554Z,17.70
2022-09-11T01:59:27.948Z,17.80
2022-09-11T02:02:06.674Z,17.80
2022-09-11T02:04:40.954Z,17.80
2022-09-11T02:07:16.075Z,17.80
2022-09-11T02:09:54.005Z,17.80
2022-09-11T02:12:28.032Z,17.80
2022-09-11T02:14:59.299Z,17.80
2022-09-11T02:17:39.203Z,17.80
2022-09-11T02:20:09.550Z,17.80
2022-09-11T02:22:38.854Z,17.90
2022-09-11T02:25:09.670Z,17.90
2022-09-11T02:27:38.867Z,17.80
2022-09-11T02:30:12.628Z,17.80
2022-09-11T02:32:45.061Z,17.90
2022-09-11T02:35:15.049Z,18.00
2022-09-11T02:37:54.810Z,18.00
2022-09-11T02:40:46.282Z,18.00
2022-09-11T02:43:41.145Z,17.90
2022-09-11T02:46:41.459Z,17.90
2022-09-11T02:49:22.301Z,17.80
2022-09-11T02:52:03.744Z,17.90
2022-09-11T02:54:51.006Z,17.90
2022-09-11T02:57:26.536Z,17.90
2022-09-11T03:00:00.255Z,17.80
2022-09-11T03:02:37.451Z,17.80
2022-09-11T03:05:08.312Z,17.80
2022-09-11T03:07:37.400Z,17.90
2022-09-11T03:10:11.526Z,17.90
2022-09-11T03:12:41.397Z,17.90
2022-09-11T03:15:13.208Z,17.80
2022-09-11T03:17:46.125Z,17.80
2022-09-11T03:20:16.952Z,17.60
2022-09-11T03:22:48.834Z,17.60
2022-09-11T03:25:23.266Z,17.70
2022-09-11T03:27:55.350Z,17.70
2022-09-11T03:30:24.535Z,17.80
2022-09-11T03:32:55.752Z,17.80
2022-09-11T03:35:25.166Z,17.70
2022-09-11T03:37:55.501Z,17.70
2022-09-11T03:40:27.997Z,17.60
2022-09-11T03:42:57.131Z,17.60
2022-09-11T03:45:26.629Z,17.60
2022-09-11T03:47:57.478Z,17.60
2022-09-11T03:50:26.637Z,17.50
2022-09-11T03:52:55.608Z,17.50
2022-09-11T03:55:24.803Z,17.40
2022-09-11T03:57:53.928Z,17.50
2022-09-11T04:00:23.048Z,17.50
2022-09-11T04:02:58.087Z,17.50
2022-09-11T04:05:57.607Z,17.50
2022-09-11T04:08:27.248Z,17.60
2022-09-11T04:10:59.082Z,17.70
2022-09-11T04:13:29.671Z,17.70
2022-09-11T04:16:03.706Z,17.70
2022-09-11T04:18:40.132Z,17.70
2022-09-11T04:21:11.905Z,17.70
2022-09-11T04:23:42.442Z,17.80
2022-09-11T04:26:17.722Z,17.70
2022-09-11T04:28:49.768Z,17.70
2022-09-11T04:31:20.171Z,17.60
2022-09-11T04:33:53.859Z,17.60
2022-09-11T04:36:26.924Z,17.50
2022-09-11T04:38:58.246Z,17.50
2022-09-11T04:41:28.587Z,17.60
2022-09-11T04:44:04.890Z,17.60
2022-09-11T04:46:36.770Z,17.60
2022-09-11T04:49:11.833Z,17.60
2022-09-11T04:51:41.971Z,17.60
2022-09-11T04:54:16.410Z,17.70
2022-09-11T04:56:45.764Z,17.80
2022-09-11T04:59:18.075Z,17.80
2022-09-11T05:02:07.422Z,17.90
2022-09-11T05:04:42.760Z,18.00
2022-09-11T05:07:14.418Z,18.00
2022-09-11T05:09:47.347Z,18.00
2022-09-11T05:12:17.647Z,18.00
2022-09-11T05:14:46.741Z,18.00
2022-09-11T05:17:15.896Z,18.00
2022-09-11T05:19:47.264Z,18.00
2022-09-11T05:22:16.437Z,18.10
2022-09-11T05:24:51.049Z,18.00
2022-09-11T05:27:20.215Z,18.00
2022-09-11T05:29:49.325Z,17.90
2022-09-11T05:32:18.449Z,17.90
2022-09-11T05:34:49.821Z,17.90
2022-09-11T05:37:21.641Z,17.90
2022-09-11T05:39:51.999Z,17.80
2022-09-11T05:42:22.105Z,17.90
2022-09-11T05:44:54.905Z,17.90
2022-09-11T05:47:25.177Z,17.90
2022-09-11T05:49:58.074Z,18.00
2022-09-11T05:52:29.735Z,18.00
2022-09-11T05:54:59.541Z,18.00
2022-09-11T05:57:28.589Z,18.00
2022-09-11T05:59:57.520Z,18.10
2022-09-11T06:02:26.702Z,18.10
2022-09-11T06:04:58.207Z,18.10
2022-09-11T06:07:27.779Z,18.00
2022-09-11T06:10:02.363Z,18.10
2022-09-11T06:12:33.645Z,18.20
2022-09-11T06:15:02.754Z,18.20
2022-09-11T06:17:33.088Z,18.20
2022-09-11T06:20:04.692Z,18.20
2022-09-11T06:22:37.595Z,18.30
2022-09-11T06:25:08.326Z,18.40
2022-09-11T06:27:37.402Z,18.40
2022-09-11T06:30:09.617Z,18.40
2022-09-11T06:32:40.373Z,18.40
2022-09-11T06:35:11.598Z,18.40
2022-09-11T06:37:41.004Z,18.40
2022-09-11T06:40:13.429Z,18.40
2022-09-11T06:42:42.670Z,18.40
2022-09-11T06:45:12.644Z,18.50
2022-09-11T06:47:43.157Z,18.40
2022-09-11T06:50:14.617Z,18.50
2022-09-11T06:53:03.553Z,18.40
2022-09-11T06:55:33.294Z,18.40
2022-09-11T06:58:08.706Z,18.30
2022-09-11T07:00:38.168Z,18.80
2022-09-11T07:03:07.310Z,18.40
2022-09-11T07:05:39.942Z,18.40
2022-09-11T07:08:09.697Z,18.40
2022-09-11T07:10:39.604Z,18.20
2022-09-11T07:13:09.047Z,18.30
2022-09-11T07:15:38.722Z,18.30
2022-09-11T07:18:08.598Z,18.40
2022-09-11T07:20:42.288Z,18.40
2022-09-11T07:23:11.329Z,18.50
2022-09-11T07:25:40.639Z,18.40
2022-09-11T07:28:12.473Z,18.40
2022-09-11T07:30:42.551Z,18.50
2022-09-11T07:33:11.756Z,18.60
2022-09-11T07:35:42.148Z,18.50
2022-09-11T07:38:11.456Z,18.60
2022-09-11T07:40:44.123Z,18.60
2022-09-11T07:43:14.684Z,18.60
2022-09-11T07:45:43.702Z,18.50
2022-09-11T07:48:13.061Z,18.50
2022-09-11T07:50:43.504Z,18.40
2022-09-11T07:53:13.490Z,18.40
2022-09-11T07:55:43.606Z,18.40
2022-09-11T07:58:12.753Z,18.40
2022-09-11T08:00:41.969Z,18.30
2022-09-11T08:03:19.210Z,18.40
2022-09-11T08:05:49.753Z,18.50
2022-09-11T08:08:18.806Z,18.50
2022-09-11T08:10:47.999Z,18.70
2022-09-11T08:13:17.242Z,18.70
2022-09-11T08:15:48.897Z,18.70
2022-09-11T08:18:18.079Z,18.80
2022-09-11T08:20:47.391Z,18.80
2022-09-11T08:23:18.009Z,18.80
2022-09-11T08:25:47.199Z,18.90
2022-09-11T08:28:17.623Z,19.00
2022-09-11T08:30:46.828Z,19.00
2022-09-11T08:33:16.716Z,19.20
2022-09-11T08:35:45.974Z,19.20
2022-09-11T08:38:17.871Z,19.10
2022-09-11T08:40:48.701Z,19.10
2022-09-11T08:43:24.026Z,19.10
2022-09-11T08:46:00.184Z,19.10
2022-09-11T08:48:36.942Z,18.90
2022-09-11T08:51:06.312Z,18.90
2022-09-11T08:53:36.897Z,19.00
2022-09-11T08:56:15.894Z,19.10
2022-09-11T08:59:09.206Z,19.20
2022-09-11T09:01:47.172Z,19.30
2022-09-11T09:04:34.159Z,19.20
2022-09-11T09:07:11.818Z,19.40
2022-09-11T09:09:57.065Z,19.50
2022-09-11T09:12:39.334Z,19.70
2022-09-11T09:15:34.296Z,19.90
2022-09-11T09:18:09.572Z,20.00
2022-09-11T09:20:43.480Z,20.00
2022-09-11T09:23:19.558Z,19.90
2022-09-11T09:25:53.657Z,19.80
2022-09-11T09:28:25.448Z,19.80
2022-09-11T09:30:58.047Z,19.90
2022-09-11T09:33:34.577Z,19.90
2022-09-11T09:36:17.491Z,19.90
2022-09-11T09:38:48.830Z,19.80
2022-09-11T09:41:56.961Z,19.90
2022-09-11T09:44:47.779Z,19.90
2022-09-11T09:47:16.935Z,19.80
2022-09-11T09:49:47.059Z,19.90
2022-09-11T09:52:20.103Z,19.90
2022-09-11T09:54:58.445Z,19.90
2022-09-11T09:57:34.282Z,19.80
2022-09-11T10:00:06.838Z,19.80
2022-09-11T10:02:49.192Z,19.90
2022-09-11T10:05:24.283Z,20.20
2022-09-11T10:07:56.786Z,20.30
2022-09-11T10:10:29.614Z,20.30
2022-09-11T10:13:18.664Z,20.30
2022-09-11T10:15:51.128Z,20.30
2022-09-11T10:18:42.530Z,20.30
2022-09-11T10:21:22.447Z,20.30
2022-09-11T10:23:55.638Z,20.20
2022-09-11T10:26:33.974Z,20.20
2022-09-11T10:29:14.841Z,20.20
2022-09-11T10:31:51.577Z,20.20
2022-09-11T10:34:23.063Z,20.20
2022-09-11T10:36:57.363Z,20.30
2022-09-11T10:39:29.490Z,20.40
2022-09-11T10:42:05.387Z,20.30
2022-09-11T10:44:36.957Z,20.40
2022-09-11T10:47:15.379Z,20.50
2022-09-11T10:49:44.721Z,20.60
2022-09-11T10:52:22.194Z,20.60
2022-09-11T10:55:01.279Z,20.70
2022-09-11T10:57:34.923Z,20.90
2022-09-11T11:00:14.659Z,20.90
2022-09-11T11:02:47.058Z,20.90
2022-09-11T11:05:24.598Z,20.90
2022-09-11T11:08:13.478Z,21.00
2022-09-11T11:11:03.984Z,21.00
2022-09-11T11:13:53.286Z,21.10
2022-09-11T11:16:39.995Z,21.10
2022-09-11T11:19:47.358Z,21.20
2022-09-11T11:22:34.395Z,21.20
2022-09-11T11:25:17.489Z,21.10
2022-09-11T11:28:29.027Z,21.30
2022-09-11T11:31:16.214Z,21.40
2022-09-11T11:34:10.418Z,21.30
2022-09-11T11:36:46.051Z,21.20
2022-09-11T11:39:26.921Z,21.40
2022-09-11T11:42:08.242Z,21.40
2022-09-11T11:44:48.414Z,21.50
2022-09-11T11:47:22.275Z,21.40
2022-09-11T11:50:04.712Z,21.40
2022-09-11T11:52:47.565Z,21.50
2022-09-11T11:55:20.660Z,21.40
2022-09-11T11:58:01.303Z,21.50
2022-09-11T12:00:35.873Z,21.50
2022-09-11T12:03:13.424Z,21.60
2022-09-11T12:05:46.894Z,21.60
2022-09-11T12:08:17.073Z,21.70
2022-09-11T12:10:56.264Z,21.60
2022-09-11T12:13:35.806Z,21.60
2022-09-11T12:16:38.978Z,21.70
2022-09-11T12:19:34.553Z,21.60
2022-09-11T12:22:14.422Z,21.70
2022-09-11T12:24:58.941Z,21.70
2022-09-11T12:28:11.741Z,21.60
2022-09-11T12:31:07.959Z,21.50
2022-09-11T12:33:58.608Z,21.60
2022-09-11T12:36:54.851Z,21.70
2022-09-11T12:39:37.248Z,21.80
2022-09-11T12:42:47.617Z,21.90
2022-09-11T12:45:39.057Z,22.00
2022-09-11T12:48:13.704Z,22.10
2022-09-11T12:50:54.639Z,22.10
2022-09-11T12:53:29.490Z,22.00
2022-09-11T12:56:20.690Z,21.90
2022-09-11T12:58:57.695Z,22.00
2022-09-11T13:01:31.929Z,21.80
2022-09-11T13:04:15.079Z,21.90
2022-09-11T13:06:50.678Z,21.90
2022-09-11T13:09:31.222Z,21.80
2022-09-11T13:12:51.771Z,21.80
2022-09-11T13:15:45.546Z,21.60
2022-09-11T13:18:38.139Z,21.60
2022-09-11T13:21:23.218Z,21.60
2022-09-11T13:24:04.367Z,21.60
2022-09-11T13:26:45.414Z,21.50
2022-09-11T13:29:17.036Z,21.60
2022-09-11T13:31:47.822Z,21.60
2022-09-11T13:34:24.136Z,21.60
2022-09-11T13:36:56.628Z,21.50
2022-09-11T13:39:38.867Z,21.50
2022-09-11T13:42:17.334Z,21.40
2022-09-11T13:44:52.065Z,21.50
2022-09-11T13:47:24.141Z,21.60
2022-09-11T13:49:58.434Z,21.70
2022-09-11T13:52:37.774Z,21.80
2022-09-11T13:55:13.139Z,21.90
2022-09-11T13:57:58.214Z,22.00
2022-09-11T14:00:53.419Z,22.10
2022-09-11T14:03:29.346Z,22.20
2022-09-11T14:06:04.185Z,22.30
2022-09-11T14:08:39.211Z,22.30
2022-09-11T14:11:15.504Z,22.30
2022-09-11T14:14:00.779Z,22.40
2022-09-11T14:17:29.603Z,22.40
2022-09-11T14:20:04.791Z,22.40
2022-09-11T14:25:26.863Z,22.30
2022-09-11T14:27:59.323Z,22.30
2022-09-11T14:30:36.929Z,22.10
2022-09-11T14:33:26.854Z,22.20
2022-09-11T14:36:08.068Z,22.30
2022-09-11T14:38:40.628Z,22.40
2022-09-11T14:41:10.205Z,22.50
2022-09-11T14:43:40.422Z,22.60
2022-09-11T14:46:09.629Z,22.80
2022-09-11T14:48:43.056Z,22.70
2022-09-11T14:51:13.840Z,22.80
2022-09-11T14:53:43.847Z,22.90
2022-09-11T14:56:13.055Z,23.00
2022-09-11T14:58:42.244Z,23.00
2022-09-11T15:01:15.375Z,23.20
2022-09-11T15:03:45.808Z,23.10
2022-09-11T15:06:19.116Z,22.90
2022-09-11T15:08:48.210Z,22.90
2022-09-11T15:11:17.172Z,22.80
2022-09-11T15:14:10.889Z,22.80
2022-09-11T15:16:35.409Z,22.70
2022-09-11T15:19:06.385Z,22.60
2022-09-11T15:21:37.569Z,22.70
2022-09-11T15:24:07.497Z,22.70
2022-09-11T15:26:38.317Z,22.70
2022-09-11T15:29:09.898Z,22.80
2022-09-11T15:31:40.042Z,22.80
2022-09-11T15:34:12.925Z,22.90
2022-09-11T15:36:42.465Z,22.90
2022-09-11T15:39:15.723Z,22.90
2022-09-11T15:41:45.311Z,22.90
2022-09-11T15:44:19.970Z,23.00
2022-09-11T15:46:50.062Z,22.90
2022-09-11T15:49:22.262Z,22.90
2022-09-11T15:51:53.743Z,23.00
2022-09-11T15:54:25.846Z,22.90
2022-09-11T15:56:55.412Z,22.80
2022-09-11T15:59:24.538Z,22.80
2022-09-11T16:01:57.600Z,22.70
2022-09-11T16:04:31.621Z,22.90
2022-09-11T16:07:00.809Z,23.00
2022-09-11T16:09:32.422Z,22.90
2022-09-11T16:12:02.165Z,22.80
2022-09-11T16:14:33.716Z,23.00
2022-09-11T16:17:05.597Z,23.10
2022-09-11T16:19:38.557Z,23.20
2022-09-11T16:22:08.038Z,23.10
2022-09-11T16:24:38.116Z,23.20
2022-09-11T16:27:09.110Z,23.20
2022-09-11T16:30:15.916Z,23.10
2022-09-11T16:32:37.342Z,22.90
2022-09-11T16:35:13.197Z,22.70
2022-09-11T16:37:42.371Z,22.50
2022-09-11T16:40:11.775Z,22.60
2022-09-11T16:42:40.917Z,22.60
2022-09-11T16:45:10.912Z,22.20
2022-09-11T16:47:39.987Z,22.20
2022-09-11T16:50:10.957Z,22.20
2022-09-11T16:52:40.486Z,22.10
2022-09-11T16:55:11.951Z,22.20
2022-09-11T16:57:41.115Z,22.20
2022-09-11T17:00:15.110Z,22.20
2022-09-11T17:02:45.396Z,22.20
2022-09-11T17:05:18.050Z,22.20
2022-09-11T17:07:47.894Z,22.20
2022-09-11T17:10:16.949Z,22.20
2022-09-11T17:12:45.992Z,22.10
2022-09-11T17:15:15.067Z,22.10
2022-09-11T17:17:44.348Z,21.90
2022-09-11T17:20:16.345Z,21.90
2022-09-11T17:22:46.153Z,21.70
2022-09-11T17:25:15.262Z,21.60
2022-09-11T17:27:45.932Z,21.70
2022-09-11T17:30:16.786Z,21.80
2022-09-11T17:32:46.219Z,21.80
2022-09-11T17:35:17.306Z,21.80
2022-09-11T17:37:46.714Z,21.80
2022-09-11T17:40:15.880Z,21.80
2022-09-11T17:42:45.739Z,21.70
2022-09-11T17:45:15.530Z,21.70
2022-09-11T17:47:44.867Z,21.70
2022-09-11T17:50:14.390Z,21.70
2022-09-11T17:52:47.827Z,21.70
2022-09-11T17:55:17.030Z,21.60
2022-09-11T17:57:55.301Z,21.60
2022-09-11T18:00:24.396Z,21.50
2022-09-11T18:02:57.228Z,21.50
2022-09-11T18:05:27.992Z,21.40
2022-09-11T18:08:04.319Z,21.30
2022-09-11T18:10:36.291Z,21.30
2022-09-11T18:13:05.864Z,21.30
2022-09-11T18:16:02.055Z,21.30
2022-09-11T18:18:32.068Z,21.10
2022-09-11T18:21:07.521Z,21.10
2022-09-11T18:23:42.848Z,21.10
2022-09-11T18:26:22.012Z,21.10
2022-09-11T18:28:54.618Z,21.00
2022-09-11T18:31:27.392Z,21.00
2022-09-11T18:34:01.421Z,20.80
2022-09-11T18:36:32.022Z,20.80
2022-09-11T18:39:04.105Z,20.70
2022-09-11T18:41:37.674Z,20.70
2022-09-11T18:44:36.761Z,20.60
2022-09-11T18:47:29.871Z,20.50
2022-09-11T18:50:07.046Z,20.50
2022-09-11T18:53:02.630Z,19.90
2022-09-11T18:55:33.501Z,19.80
2022-09-11T18:58:02.760Z,20.40
2022-09-11T19:00:31.903Z,20.30
2022-09-11T19:03:01.010Z,20.20
2022-09-11T19:05:31.120Z,20.20
2022-09-11T19:08:01.594Z,20.10
2022-09-11T19:10:34.079Z,20.00
2022-09-11T19:13:14.154Z,20.00
2022-09-11T19:15:46.854Z,20.00
2022-09-11T19:18:15.947Z,19.80
2022-09-11T19:20:45.018Z,19.90
2022-09-11T19:23:14.035Z,19.80
2022-09-11T19:25:43.502Z,19.80
2022-09-11T19:28:13.895Z,19.80
2022-09-11T19:30:43.706Z,19.70
2022-09-11T19:33:12.901Z,19.60
2022-09-11T19:35:42.052Z,19.60
2022-09-11T19:38:11.071Z,19.50
2022-09-11T19:40:40.150Z,19.40
2022-09-11T19:43:12.150Z,19.40
2022-09-11T19:45:43.343Z,19.30
2022-09-11T19:48:12.486Z,19.30
2022-09-11T19:50:44.855Z,19.20
2022-09-11T19:53:14.107Z,19.20
2022-09-11T19:55:43.311Z,19.10
2022-09-11T19:58:12.503Z,19.10
2022-09-11T20:00:42.915Z,19.00
2022-09-11T20:03:12.360Z,19.00
2022-09-11T20:05:41.626Z,19.00
2022-09-11T20:08:16.176Z,19.00
2022-09-11T20:10:48.444Z,19.00
2022-09-11T20:13:17.425Z,18.90
2022-09-11T20:15:47.867Z,18.90
2022-09-11T20:18:16.835Z,18.90
2022-09-11T20:20:46.148Z,18.90
2022-09-11T20:23:16.001Z,18.80
2022-09-11T20:25:45.317Z,18.70
2022-09-11T20:28:16.194Z,18.70
2022-09-11T20:30:45.223Z,18.70
2022-09-11T20:33:15.726Z,18.70
2022-09-11T20:35:44.806Z,18.60
2022-09-11T20:38:14.425Z,18.50
2022-09-11T20:40:45.657Z,18.50
2022-09-11T20:43:14.699Z,18.40
2022-09-11T20:45:44.310Z,18.40
2022-09-11T20:48:13.421Z,18.30
2022-09-11T20:50:43.716Z,18.30
2022-09-11T20:53:12.674Z,18.30
2022-09-11T20:55:42.741Z,18.20
2022-09-11T20:58:11.750Z,18.20
2022-09-11T21:00:44.206Z,18.10
2022-09-11T21:03:13.553Z,17.90
2022-09-11T21:05:44.749Z,17.80
2022-09-11T21:08:19.054Z,17.80
2022-09-11T21:10:51.157Z,17.80
2022-09-11T21:13:20.309Z,17.80
2022-09-11T21:15:52.690Z,17.90
2022-09-11T21:18:22.042Z,17.90
2022-09-11T21:20:56.481Z,17.90
2022-09-11T21:23:25.960Z,17.90
2022-09-11T21:25:55.066Z,17.90
2022-09-11T21:28:24.669Z,17.90
2022-09-11T21:30:54.017Z,17.80
2022-09-11T21:33:22.986Z,17.80
2022-09-11T21:35:53.513Z,17.70
2022-09-11T21:38:28.360Z,17.70
2022-09-11T21:40:59.305Z,17.60
2022-09-11T21:43:28.918Z,17.50
2022-09-11T21:45:58.096Z,17.50
2022-09-11T21:48:28.863Z,17.50
2022-09-11T21:51:08.216Z,17.40
2022-09-11T21:53:39.750Z,17.40
2022-09-11T21:56:19.267Z,17.30
2022-09-11T21:58:51.206Z,17.20
2022-09-11T22:01:21.308Z,17.20
2022-09-11T22:03:50.589Z,17.20
2022-09-11T22:06:20.291Z,17.20
2022-09-11T22:08:51.045Z,17.20
2022-09-11T22:11:20.889Z,17.30
2022-09-11T22:13:52.968Z,17.30
2022-09-11T22:16:23.280Z,17.30
2022-09-11T22:18:55.202Z,17.20
2022-09-11T22:21:24.630Z,17.20
2022-09-11T22:23:55.184Z,17.20
2022-09-11T22:26:24.654Z,17.20
2022-09-11T22:28:53.949Z,17.10
2022-09-11T22:31:25.853Z,17.10
2022-09-11T22:33:55.697Z,17.00
2022-09-11T22:36:27.345Z,17.00
2022-09-11T22:38:58.917Z,16.90
2022-09-11T22:41:28.614Z,16.90
2022-09-11T22:43:57.636Z,16.90
2022-09-11T22:46:27.545Z,16.90
2022-09-11T22:48:56.722Z,16.80
2022-09-11T22:51:26.257Z,16.90
2022-09-11T22:53:55.929Z,16.80
2022-09-11T22:56:26.371Z,16.80
2022-09-11T22:58:56.065Z,16.80
2022-09-11T23:01:25.722Z,16.80
2022-09-11T23:03:55.718Z,16.70
2022-09-11T23:06:42.448Z,16.70
2022-09-11T23:09:16.649Z,16.60
2022-09-11T23:11:47.694Z,16.60
2022-09-11T23:14:16.663Z,16.50
2022-09-11T23:16:45.674Z,16.50
2022-09-11T23:19:15.463Z,16.50
2022-09-11T23:21:44.547Z,16.50
2022-09-11T23:24:14.311Z,16.50
2022-09-11T23:26:46.531Z,16.50
2022-09-11T23:29:15.766Z,16.40
2022-09-11T23:31:45.250Z,16.40
2022-09-11T23:34:17.228Z,16.40
2022-09-11T23:36:47.118Z,16.30
2022-09-11T23:39:16.289Z,16.30
2022-09-11T23:41:46.622Z,16.30
2022-09-11T23:44:15.931Z,16.30
2022-09-11T23:46:45.314Z,16.30
2022-09-11T23:49:16.057Z,16.30
2022-09-11T23:51:45.338Z,16.20
2022-09-11T23:54:14.350Z,16.10
2022-09-11T23:56:43.396Z,16.10
2022-09-11T23:59:13.804Z,16.10
